Time;durP1;ratioP1;P1;durP2;ratioP2;P2;SDS_P1;SDS_P2;PMS_P1;PMS_P2;Temp;Humidity;BMP_temperature;BMP_pressure;BME280_temperature;BME280_humidity;BME280_pressure;Samples;Min_cycle;Max_cycle;Signal;HPM_P1;HPM_P2
2024/01/28 00:00:13;;;;;;;28.83;16.42;;;-1.90;99.90;;;;;;4944793;28;20399;-63
2024/01/28 00:02:38;;;;;;;28.60;13.75;;;-1.80;99.90;;;;;;4948215;28;20031;-65
2024/01/28 00:05:04;;;;;;;33.95;14.65;;;-1.80;99.90;;;;;;4948669;28;20107;-63
2024/01/28 00:07:30;;;;;;;28.40;15.75;;;-1.80;99.90;;;;;;4947646;28;20063;-65
2024/01/28 00:09:55;;;;;;;31.25;14.85;;;-1.80;99.90;;;;;;4943051;28;20036;-63
2024/01/28 00:12:21;;;;;;;57.13;22.42;;;-1.80;99.90;;;;;;4944903;28;20102;-64
2024/01/28 00:14:46;;;;;;;149.00;55.90;;;-1.70;99.90;;;;;;4948924;28;20134;-64
2024/01/28 00:17:12;;;;;;;141.90;56.50;;;-1.80;99.90;;;;;;4948167;28;20051;-62
2024/01/28 00:19:38;;;;;;;69.75;25.98;;;-1.80;99.90;;;;;;4948156;28;20016;-62
2024/01/28 00:22:03;;;;;;;105.97;39.47;;;-1.80;99.90;;;;;;4948076;28;20032;-64
2024/01/28 00:24:29;;;;;;;78.53;28.45;;;-1.90;99.90;;;;;;4947881;28;20478;-63
2024/01/28 00:26:55;;;;;;;35.53;17.58;;;-1.90;99.90;;;;;;4948319;28;20118;-63
2024/01/28 00:29:28;;;;;;;87.30;28.83;;;-1.90;99.90;;;;;;4951417;28;20085;-63
2024/01/28 00:31:58;;;;;;;70.25;26.70;;;-1.90;99.90;;;;;;4945947;28;20540;-64
2024/01/28 00:34:25;;;;;;;116.43;41.10;;;-2.00;99.90;;;;;;4947617;28;20039;-64
2024/01/28 00:36:51;;;;;;;89.13;32.70;;;-2.00;99.90;;;;;;4948544;28;20031;-63
2024/01/28 00:39:17;;;;;;;67.00;24.45;;;-2.00;99.90;;;;;;4948731;28;20050;-64
2024/01/28 00:41:43;;;;;;;40.40;18.45;;;-2.10;99.90;;;;;;4948160;28;20024;-63
2024/01/28 00:44:08;;;;;;;37.22;16.73;;;-2.10;99.90;;;;;;4946243;28;20038;-63
2024/01/28 00:46:34;;;;;;;27.40;15.63;;;-2.20;99.90;;;;;;4950222;28;20033;-64
2024/01/28 00:49:01;;;;;;;57.90;23.98;;;-2.20;99.90;;;;;;4948722;28;20039;-63
2024/01/28 00:51:27;;;;;;;73.55;28.15;;;-2.20;99.90;;;;;;4945486;28;20457;-62
2024/01/28 00:53:53;;;;;;;93.43;33.30;;;-2.30;99.90;;;;;;4948666;28;20058;-64
2024/01/28 00:56:18;;;;;;;94.75;33.17;;;-2.30;99.90;;;;;;4948480;28;20093;-65
2024/01/28 00:58:45;;;;;;;113.35;37.22;;;-2.30;99.90;;;;;;4949764;28;20030;-62
2024/01/28 01:01:12;;;;;;;55.15;19.88;;;-2.30;99.90;;;;;;4948689;28;20032;-64
2024/01/28 01:03:38;;;;;;;49.40;18.35;;;-2.30;99.90;;;;;;4946274;28;20036;-63
2024/01/28 01:06:05;;;;;;;34.03;14.93;;;-2.30;99.90;;;;;;4948686;28;20674;-63
2024/01/28 01:08:32;;;;;;;32.05;15.18;;;-2.30;99.90;;;;;;4946569;28;20058;-64
2024/01/28 01:10:58;;;;;;;31.90;13.98;;;-2.30;99.90;;;;;;4946269;28;20026;-63
2024/01/28 01:13:24;;;;;;;33.72;15.02;;;-2.30;99.90;;;;;;4944186;28;20034;-63
2024/01/28 01:15:50;;;;;;;31.60;15.63;;;-2.30;99.90;;;;;;4946917;28;20487;-64
2024/01/28 01:18:15;;;;;;;25.45;14.20;;;-2.30;99.90;;;;;;4950203;28;20180;-64
2024/01/28 01:20:41;;;;;;;36.72;16.08;;;-2.40;99.90;;;;;;4949608;28;20020;-65
2024/01/28 01:23:07;;;;;;;29.25;15.15;;;-2.50;99.90;;;;;;4951220;28;20032;-63
2024/01/28 01:25:33;;;;;;;37.63;15.73;;;-2.50;99.90;;;;;;4952309;28;20034;-64
2024/01/28 01:27:58;;;;;;;35.08;16.08;;;-2.60;99.90;;;;;;4949326;28;20082;-63
2024/01/28 01:30:24;;;;;;;28.55;15.35;;;-2.60;99.90;;;;;;4951253;28;20411;-63
2024/01/28 01:32:50;;;;;;;37.60;17.63;;;-2.60;99.90;;;;;;4948385;28;20129;-62
2024/01/28 01:35:15;;;;;;;23.90;14.13;;;-2.60;99.90;;;;;;4945281;28;20038;-63
2024/01/28 01:37:41;;;;;;;29.15;16.27;;;-2.60;99.90;;;;;;4946951;28;20402;-62
2024/01/28 01:40:07;;;;;;;34.95;16.73;;;-2.60;99.90;;;;;;4951207;28;20472;-64
2024/01/28 01:42:33;;;;;;;28.88;14.10;;;-2.70;99.90;;;;;;4952688;28;20031;-64
2024/01/28 01:44:59;;;;;;;21.75;14.05;;;-2.70;99.90;;;;;;4954836;28;20035;-64
2024/01/28 01:47:26;;;;;;;31.40;16.50;;;-2.70;99.90;;;;;;4952255;28;20122;-62
2024/01/28 01:49:52;;;;;;;29.98;13.57;;;-2.70;99.90;;;;;;4953652;28;20074;-64
2024/01/28 01:52:19;;;;;;;23.55;12.50;;;-2.80;99.90;;;;;;4953210;28;20031;-64
2024/01/28 01:54:47;;;;;;;20.23;12.10;;;-2.70;99.90;;;;;;4954322;28;20626;-64
2024/01/28 01:57:13;;;;;;;21.45;11.65;;;-2.80;99.90;;;;;;4951047;28;20067;-64
2024/01/28 01:59:40;;;;;;;29.27;12.95;;;-2.80;99.90;;;;;;4952756;28;20052;-64
2024/01/28 02:02:08;;;;;;;30.73;12.77;;;-2.80;99.90;;;;;;4953190;28;20081;-63
2024/01/28 02:04:35;;;;;;;23.45;12.95;;;-2.80;99.90;;;;;;4949393;29;20027;-64
2024/01/28 02:07:01;;;;;;;35.70;11.48;;;-2.80;99.90;;;;;;4947754;28;20478;-64
2024/01/28 02:09:27;;;;;;;29.75;12.52;;;-2.80;99.90;;;;;;4949084;28;20823;-65
2024/01/28 02:11:53;;;;;;;18.45;12.27;;;-2.90;99.90;;;;;;4952756;28;20102;-64
2024/01/28 02:14:28;;;;;;;23.92;11.35;;;-2.90;99.90;;;;;;4952247;28;20027;-64
2024/01/28 02:16:59;;;;;;;22.08;11.38;;;-2.90;99.90;;;;;;4951859;28;20043;-63
2024/01/28 02:19:25;;;;;;;27.70;12.25;;;-2.90;99.90;;;;;;4953768;28;20066;-63
2024/01/28 02:21:51;;;;;;;29.25;11.63;;;-2.90;99.90;;;;;;4957154;28;20039;-65
2024/01/28 02:24:17;;;;;;;22.55;11.45;;;-2.90;99.90;;;;;;4948698;28;20027;-63
2024/01/28 02:26:42;;;;;;;18.85;10.63;;;-2.90;99.90;;;;;;4950180;28;20035;-63
2024/01/28 02:29:08;;;;;;;27.52;11.65;;;-2.90;99.90;;;;;;4948238;28;20435;-63
2024/01/28 02:31:33;;;;;;;20.73;11.35;;;-2.90;99.90;;;;;;4952727;28;20028;-65
2024/01/28 02:34:00;;;;;;;18.52;10.80;;;-2.90;99.90;;;;;;4955299;28;20031;-64
2024/01/28 02:36:27;;;;;;;26.85;11.85;;;-2.90;99.90;;;;;;4949458;28;20066;-63
2024/01/28 02:38:54;;;;;;;32.00;11.52;;;-2.90;99.90;;;;;;4945591;28;20134;-63
2024/01/28 02:41:20;;;;;;;27.23;11.65;;;-2.90;99.90;;;;;;4950728;28;20027;-65
2024/01/28 02:43:46;;;;;;;17.75;10.60;;;-2.80;99.90;;;;;;4950069;28;20019;-63
2024/01/28 02:46:13;;;;;;;24.20;12.00;;;-2.80;99.90;;;;;;4947163;28;20024;-63
2024/01/28 02:48:41;;;;;;;29.20;11.98;;;-2.80;99.90;;;;;;4947759;28;20027;-63
2024/01/28 02:51:07;;;;;;;28.02;12.65;;;-2.80;99.90;;;;;;4944459;28;20398;-63
2024/01/28 02:53:32;;;;;;;29.27;12.15;;;-2.80;99.90;;;;;;4948207;28;20035;-64
2024/01/28 02:56:00;;;;;;;26.27;11.60;;;-2.80;99.90;;;;;;4949225;28;20058;-63
2024/01/28 02:58:30;;;;;;;28.83;11.60;;;-2.80;99.90;;;;;;4951477;28;20033;-63
2024/01/28 03:00:56;;;;;;;28.15;10.63;;;-2.80;99.90;;;;;;4948507;28;20028;-63
2024/01/28 03:03:21;;;;;;;28.27;12.70;;;-2.80;99.90;;;;;;4949106;28;20082;-63
2024/01/28 03:05:47;;;;;;;24.58;12.95;;;-2.90;99.90;;;;;;4946128;28;20027;-63
2024/01/28 03:08:13;;;;;;;25.45;11.23;;;-2.90;99.90;;;;;;4948529;28;20062;-63
2024/01/28 03:10:39;;;;;;;22.08;11.68;;;-2.90;99.90;;;;;;4949717;28;20031;-64
2024/01/28 03:13:05;;;;;;;27.15;10.27;;;-2.80;99.90;;;;;;4947816;28;20035;-63
2024/01/28 03:15:31;;;;;;;17.50;9.95;;;-2.80;99.90;;;;;;4946854;28;20075;-64
2024/01/28 03:17:56;;;;;;;22.13;10.85;;;-2.70;99.90;;;;;;4950590;28;20427;-63
2024/01/28 03:20:24;;;;;;;24.98;11.05;;;-2.80;99.90;;;;;;4945615;28;20156;-64
2024/01/28 03:22:50;;;;;;;22.52;10.75;;;-2.80;99.90;;;;;;4953990;28;20106;-63
2024/01/28 03:25:16;;;;;;;22.25;10.70;;;-2.90;99.90;;;;;;4953015;28;20452;-63
2024/01/28 03:27:41;;;;;;;18.02;10.10;;;-2.90;99.90;;;;;;4954413;28;20102;-63
2024/01/28 03:30:08;;;;;;;23.92;10.55;;;-3.00;99.90;;;;;;4953280;28;20082;-63
2024/01/28 03:32:34;;;;;;;26.17;12.73;;;-3.10;99.90;;;;;;4948303;28;20036;-64
2024/01/28 03:35:01;;;;;;;22.15;11.98;;;-3.10;99.90;;;;;;4951510;28;20081;-64
2024/01/28 03:37:26;;;;;;;28.98;13.13;;;-3.10;99.90;;;;;;4950555;28;20027;-64
2024/01/28 03:39:52;;;;;;;19.45;9.88;;;-3.10;99.90;;;;;;4949051;28;20023;-63
2024/01/28 03:42:18;;;;;;;28.13;10.60;;;-3.20;99.90;;;;;;4948791;28;20074;-63
2024/01/28 03:44:43;;;;;;;23.77;10.73;;;-3.20;99.90;;;;;;4951277;28;20031;-63
2024/01/28 03:47:09;;;;;;;15.90;9.65;;;-3.20;99.90;;;;;;4950352;28;20078;-64
2024/01/28 03:49:34;;;;;;;27.92;12.68;;;-3.20;99.90;;;;;;4954457;28;20062;-64
2024/01/28 03:52:00;;;;;;;21.48;12.77;;;-3.20;99.90;;;;;;4951384;28;20446;-64
2024/01/28 03:54:26;;;;;;;31.88;12.20;;;-3.20;99.90;;;;;;4949034;28;20035;-65
2024/01/28 03:56:52;;;;;;;22.83;9.70;;;-3.20;99.90;;;;;;4949532;28;20039;-63
2024/01/28 03:59:17;;;;;;;23.27;10.57;;;-3.20;99.90;;;;;;4950867;28;20129;-64
2024/01/28 04:01:43;;;;;;;18.17;9.82;;;-3.20;99.90;;;;;;4952811;28;20072;-63
2024/01/28 04:04:09;;;;;;;16.65;10.35;;;-3.30;99.90;;;;;;4956216;28;20039;-64
2024/01/28 04:06:43;;;;;;;26.58;9.63;;;-3.30;99.90;;;;;;4953764;28;20045;-65
2024/01/28 04:09:09;;;;;;;22.45;9.85;;;-3.30;99.90;;;;;;4948674;28;20038;-63
2024/01/28 04:11:35;;;;;;;18.98;9.63;;;-3.30;99.90;;;;;;4948573;28;20031;-64
2024/01/28 04:14:00;;;;;;;15.38;10.50;;;-3.30;99.90;;;;;;4945864;28;20028;-64
2024/01/28 04:16:26;;;;;;;17.92;10.48;;;-3.40;99.90;;;;;;4951451;28;20490;-64
2024/01/28 04:18:52;;;;;;;15.35;8.45;;;-3.40;99.90;;;;;;4948276;28;20027;-62
2024/01/28 04:21:18;;;;;;;21.67;9.75;;;-3.50;99.90;;;;;;4947963;28;20114;-63
2024/01/28 04:23:46;;;;;;;22.52;10.95;;;-3.50;99.90;;;;;;4950681;28;20028;-63
2024/01/28 04:26:12;;;;;;;21.48;10.70;;;-3.50;99.90;;;;;;4949113;28;20027;-63
2024/01/28 04:28:40;;;;;;;16.80;10.38;;;-3.60;99.90;;;;;;4948745;28;20015;-64
2024/01/28 04:31:05;;;;;;;25.75;12.27;;;-3.60;99.90;;;;;;4949319;28;20035;-64
2024/01/28 04:33:32;;;;;;;18.58;10.73;;;-3.60;99.90;;;;;;4948749;28;20035;-64
2024/01/28 04:35:58;;;;;;;15.95;10.25;;;-3.70;99.90;;;;;;4946363;28;20042;-63
2024/01/28 04:38:24;;;;;;;20.85;11.95;;;-3.70;99.90;;;;;;4946009;28;20035;-63
2024/01/28 04:40:49;;;;;;;17.85;10.70;;;-3.70;99.90;;;;;;4946661;28;20031;-62
2024/01/28 04:43:15;;;;;;;22.25;11.30;;;-3.70;99.90;;;;;;4949509;28;20024;-63
2024/01/28 04:45:41;;;;;;;21.10;11.38;;;-3.70;99.90;;;;;;4950785;28;20054;-62
2024/01/28 04:48:07;;;;;;;24.35;12.00;;;-3.70;99.90;;;;;;4951852;28;20480;-63
2024/01/28 04:50:33;;;;;;;28.65;11.45;;;-3.70;99.90;;;;;;4950605;28;20050;-64
2024/01/28 04:52:58;;;;;;;21.80;10.80;;;-3.70;99.90;;;;;;4950693;28;20027;-64
2024/01/28 04:55:24;;;;;;;27.30;11.38;;;-3.70;99.90;;;;;;4945825;28;20102;-64
2024/01/28 04:57:49;;;;;;;29.35;12.02;;;-3.70;99.90;;;;;;4950481;28;20055;-62
2024/01/28 05:00:15;;;;;;;27.80;12.40;;;-3.70;99.90;;;;;;4947834;28;20027;-63
2024/01/28 05:02:41;;;;;;;30.92;13.18;;;-3.70;99.90;;;;;;4961935;28;20054;-64
2024/01/28 05:05:07;;;;;;;24.77;11.18;;;-3.70;99.90;;;;;;4950583;28;20055;-63
2024/01/28 05:07:34;;;;;;;17.30;11.63;;;-3.70;99.90;;;;;;4951254;28;20491;-64
2024/01/28 05:09:59;;;;;;;27.33;12.60;;;-3.70;99.90;;;;;;4947041;28;20035;-64
2024/01/28 05:12:25;;;;;;;27.42;11.68;;;-3.60;99.90;;;;;;4950965;28;20050;-64
2024/01/28 05:14:51;;;;;;;20.88;11.85;;;-3.60;99.90;;;;;;4954447;28;20491;-63
2024/01/28 05:17:17;;;;;;;22.55;11.63;;;-3.70;99.90;;;;;;4953552;28;20039;-63
2024/01/28 05:19:42;;;;;;;25.33;11.43;;;-3.60;99.90;;;;;;4955231;28;20027;-66
2024/01/28 05:22:08;;;;;;;26.00;11.38;;;-3.70;99.90;;;;;;4949012;28;20122;-64
2024/01/28 05:24:34;;;;;;;17.35;10.35;;;-3.70;99.90;;;;;;4944958;28;20035;-64
2024/01/28 05:27:00;;;;;;;31.45;11.93;;;-3.70;99.90;;;;;;4952649;28;20446;-64
2024/01/28 05:29:25;;;;;;;28.75;11.90;;;-3.70;99.90;;;;;;4953741;28;20478;-64
2024/01/28 05:31:52;;;;;;;39.15;15.57;;;-3.70;99.90;;;;;;4952042;28;20059;-64
2024/01/28 05:34:18;;;;;;;26.75;15.13;;;-3.70;99.90;;;;;;4947498;28;20569;-64
2024/01/28 05:36:49;;;;;;;43.85;17.05;;;-3.70;99.90;;;;;;4944359;28;20082;-65
2024/01/28 05:39:15;;;;;;;34.90;12.80;;;-3.70;99.90;;;;;;4952815;28;20027;-63
2024/01/28 05:41:40;;;;;;;33.13;13.18;;;-3.80;99.90;;;;;;4953970;28;20023;-64
2024/01/28 05:44:06;;;;;;;27.80;12.95;;;-3.80;99.90;;;;;;4952477;28;20379;-63
2024/01/28 05:46:32;;;;;;;33.33;11.73;;;-3.80;99.90;;;;;;4955945;28;20019;-64
2024/01/28 05:48:57;;;;;;;15.82;10.32;;;-3.80;99.90;;;;;;4953075;28;20392;-62
2024/01/28 05:51:25;;;;;;;24.77;12.52;;;-3.80;99.90;;;;;;4953313;28;20064;-64
2024/01/28 05:53:51;;;;;;;19.83;11.05;;;-3.90;99.90;;;;;;4955112;28;20034;-63
2024/01/28 05:56:16;;;;;;;21.02;10.15;;;-3.90;99.90;;;;;;4952033;28;20043;-63
2024/01/28 05:58:42;;;;;;;27.17;12.50;;;-3.90;99.90;;;;;;4951402;28;20044;-65
2024/01/28 06:01:08;;;;;;;20.98;10.45;;;-3.90;99.90;;;;;;4952898;28;20031;-64
2024/01/28 06:03:34;;;;;;;22.80;10.32;;;-3.90;99.90;;;;;;4950725;28;20031;-64
2024/01/28 06:06:00;;;;;;;18.38;9.75;;;-3.90;99.90;;;;;;4954998;28;20038;-64
2024/01/28 06:08:26;;;;;;;27.25;13.15;;;-4.00;99.90;;;;;;4953360;28;20043;-63
2024/01/28 06:10:52;;;;;;;21.25;8.73;;;-4.00;99.90;;;;;;4950164;28;20039;-63
2024/01/28 06:13:18;;;;;;;22.67;11.48;;;-3.90;99.90;;;;;;4949768;28;20019;-63
2024/01/28 06:15:43;;;;;;;25.38;11.00;;;-3.90;99.90;;;;;;4951346;28;20435;-64
2024/01/28 06:18:09;;;;;;;31.15;11.80;;;-3.90;99.90;;;;;;4952664;28;20066;-64
2024/01/28 06:20:35;;;;;;;22.58;11.77;;;-3.90;99.90;;;;;;4953611;28;20031;-63
2024/01/28 06:23:02;;;;;;;28.17;11.95;;;-3.90;99.90;;;;;;4956544;28;20118;-63
2024/01/28 06:25:28;;;;;;;25.52;13.27;;;-3.90;99.90;;;;;;4952811;28;20034;-64
2024/01/28 06:27:53;;;;;;;36.60;14.07;;;-3.80;99.90;;;;;;4950394;28;20036;-64
2024/01/28 06:30:20;;;;;;;25.83;12.77;;;-3.80;99.90;;;;;;4948769;28;20077;-63
2024/01/28 06:32:45;;;;;;;27.23;10.75;;;-3.70;99.90;;;;;;4952457;28;20777;-63
2024/01/28 06:35:11;;;;;;;25.98;11.13;;;-3.60;99.90;;;;;;4948798;28;20110;-64
2024/01/28 06:37:37;;;;;;;23.30;10.82;;;-3.60;99.90;;;;;;4946341;28;20019;-64
2024/01/28 06:40:03;;;;;;;35.03;12.02;;;-3.50;99.90;;;;;;4943743;28;20062;-64
2024/01/28 06:42:31;;;;;;;24.60;11.63;;;-3.50;99.90;;;;;;4950481;28;20028;-64
2024/01/28 06:44:58;;;;;;;22.80;12.40;;;-3.50;99.90;;;;;;4949567;28;20101;-64
2024/01/28 06:47:24;;;;;;;21.17;11.32;;;-3.50;99.90;;;;;;4951459;28;20086;-64
2024/01/28 06:49:50;;;;;;;17.25;10.98;;;-3.50;99.90;;;;;;4953228;28;20031;-64
2024/01/28 06:52:15;;;;;;;19.58;11.07;;;-3.40;99.90;;;;;;4950208;28;20558;-65
2024/01/28 06:54:41;;;;;;;16.65;10.55;;;-3.40;99.90;;;;;;4948245;28;20027;-64
2024/01/28 06:57:07;;;;;;;18.83;9.82;;;-3.50;99.90;;;;;;4942169;28;20043;-65
2024/01/28 06:59:32;;;;;;;13.73;9.07;;;-3.60;99.90;;;;;;4945226;28;20051;-65
2024/01/28 07:01:58;;;;;;;16.27;8.63;;;-3.60;99.90;;;;;;4944480;28;20028;-64
2024/01/28 07:04:23;;;;;;;13.02;8.63;;;-3.60;99.90;;;;;;4947844;28;20027;-63
2024/01/28 07:06:49;;;;;;;17.17;9.63;;;-3.60;99.90;;;;;;4951241;28;20078;-62
2024/01/28 07:09:17;;;;;;;21.77;10.13;;;-3.50;99.90;;;;;;4948339;28;20032;-64
2024/01/28 07:11:43;;;;;;;17.05;9.68;;;-3.50;99.90;;;;;;4948065;28;20041;-64
2024/01/28 07:14:10;;;;;;;20.90;10.02;;;-3.50;99.90;;;;;;4945757;28;20106;-65
2024/01/28 07:16:35;;;;;;;40.83;18.77;;;-3.40;99.90;;;;;;4948119;28;20067;-64
2024/01/28 07:19:01;;;;;;;73.15;28.55;;;-3.40;99.90;;;;;;4951764;28;20032;-64
2024/01/28 07:21:27;;;;;;;57.50;22.45;;;-3.30;99.90;;;;;;4953125;28;20027;-63
2024/01/28 07:23:52;;;;;;;55.70;24.20;;;-3.30;99.90;;;;;;4947865;28;20776;-63
2024/01/28 07:26:18;;;;;;;29.55;15.95;;;-3.20;99.90;;;;;;4948743;28;20039;-63
2024/01/28 07:28:43;;;;;;;26.13;12.77;;;-3.20;99.90;;;;;;4947520;28;20023;-65
2024/01/28 07:31:09;;;;;;;24.88;12.35;;;-3.20;99.90;;;;;;4952169;28;20082;-63
2024/01/28 07:33:35;;;;;;;18.38;11.40;;;-3.10;99.90;;;;;;4950563;28;20606;-63
2024/01/28 07:36:01;;;;;;;21.30;12.02;;;-3.00;99.90;;;;;;4952663;28;20061;-64
2024/01/28 07:38:27;;;;;;;34.45;12.95;;;-3.00;99.90;;;;;;4947548;28;20106;-65
2024/01/28 07:40:53;;;;;;;16.30;11.90;;;-2.90;99.90;;;;;;4944024;28;20090;-64
2024/01/28 07:43:19;;;;;;;21.48;10.98;;;-2.90;99.90;;;;;;4949422;28;20027;-64
2024/01/28 07:45:45;;;;;;;24.05;10.70;;;-2.90;99.90;;;;;;4950621;28;20098;-64
2024/01/28 07:48:11;;;;;;;15.95;10.57;;;-2.90;99.90;;;;;;4950464;28;20042;-64
2024/01/28 07:50:36;;;;;;;19.70;12.15;;;-2.90;99.90;;;;;;4950514;28;20019;-63
2024/01/28 07:53:02;;;;;;;24.15;12.68;;;-2.80;99.90;;;;;;4945189;28;20028;-64
2024/01/28 07:55:27;;;;;;;27.08;13.48;;;-2.80;99.90;;;;;;4947169;28;20049;-65
2024/01/28 07:57:54;;;;;;;19.00;13.05;;;-2.70;99.90;;;;;;4956458;28;20039;-64
2024/01/28 08:00:20;;;;;;;34.17;16.45;;;-2.60;99.90;;;;;;4950190;28;20035;-64
2024/01/28 08:02:46;;;;;;;23.95;13.05;;;-2.50;99.90;;;;;;4953724;28;20050;-65
2024/01/28 08:05:12;;;;;;;20.05;10.90;;;-2.50;99.90;;;;;;4942027;28;20036;-64
2024/01/28 08:07:38;;;;;;;21.17;12.30;;;-2.40;99.90;;;;;;4944559;28;20019;-64
2024/01/28 08:10:04;;;;;;;33.60;16.00;;;-2.30;99.90;;;;;;4952641;28;20097;-64
2024/01/28 08:12:29;;;;;;;44.83;19.48;;;-2.20;99.90;;;;;;4949651;28;20038;-64
2024/01/28 08:14:55;;;;;;;54.05;23.17;;;-2.10;99.90;;;;;;4947929;28;20028;-63
2024/01/28 08:17:21;;;;;;;34.50;13.98;;;-2.00;99.90;;;;;;4948661;28;20028;-64
2024/01/28 08:19:46;;;;;;;28.10;10.63;;;-1.90;99.90;;;;;;4948262;28;20041;-64
2024/01/28 08:22:12;;;;;;;34.15;17.08;;;-1.80;99.90;;;;;;4949653;28;20120;-65
2024/01/28 08:24:38;;;;;;;62.20;21.45;;;-1.80;99.90;;;;;;4947547;28;20567;-66
2024/01/28 08:27:04;;;;;;;19.95;12.15;;;-1.70;99.90;;;;;;4947277;28;20035;-64
2024/01/28 08:29:29;;;;;;;19.48;10.55;;;-1.80;99.90;;;;;;4946254;28;20031;-64
2024/01/28 08:31:57;;;;;;;25.88;11.10;;;-1.60;99.90;;;;;;4947958;28;20360;-64
2024/01/28 08:34:23;;;;;;;23.33;11.90;;;-1.60;99.90;;;;;;4956392;28;20740;-60
2024/01/28 08:36:49;;;;;;;27.63;11.77;;;-1.50;99.90;;;;;;4930571;28;20059;-64
2024/01/28 08:39:14;;;;;;;27.60;11.15;;;-1.40;99.90;;;;;;4938971;28;20125;-63
2024/01/28 08:41:40;;;;;;;20.60;10.82;;;-1.30;99.90;;;;;;4946684;28;20050;-64
2024/01/28 08:44:06;;;;;;;22.92;12.75;;;-1.20;99.90;;;;;;4949708;28;20056;-63
2024/01/28 08:46:32;;;;;;;28.20;10.45;;;-1.20;99.90;;;;;;4950183;28;20019;-63
2024/01/28 08:48:58;;;;;;;9.70;7.10;;;-1.10;99.90;;;;;;4948677;28;20078;-63
2024/01/28 08:51:24;;;;;;;21.67;12.00;;;-1.00;99.90;;;;;;4947887;28;20035;-64
2024/01/28 08:53:49;;;;;;;33.90;15.75;;;-0.80;99.90;;;;;;4949909;28;20839;-61
2024/01/28 08:56:15;;;;;;;24.23;10.40;;;-0.80;99.90;;;;;;4940866;28;20027;-62
2024/01/28 08:58:41;;;;;;;14.98;8.05;;;-0.70;99.90;;;;;;4955058;28;20495;-63
2024/01/28 09:01:08;;;;;;;17.48;8.88;;;-0.50;99.90;;;;;;4950386;28;20043;-60
2024/01/28 09:03:33;;;;;;;15.68;8.13;;;-0.40;99.90;;;;;;4947639;28;20053;-62
2024/01/28 09:06:00;;;;;;;21.58;7.95;;;-0.30;99.90;;;;;;4944571;28;20229;-62
2024/01/28 09:08:30;;;;;;;20.65;9.13;;;-0.20;99.90;;;;;;4944778;28;20031;-64
2024/01/28 09:10:56;;;;;;;17.00;8.25;;;-0.10;99.90;;;;;;4948647;28;20525;-63
2024/01/28 09:13:23;;;;;;;17.48;8.85;;;0.10;99.90;;;;;;4946105;28;20067;-62
2024/01/28 09:15:49;;;;;;;11.55;8.18;;;0.10;99.90;;;;;;4943386;28;20039;-61
2024/01/28 09:18:15;;;;;;;14.27;7.50;;;0.20;99.90;;;;;;4945688;28;20040;-62
2024/01/28 09:20:40;;;;;;;14.75;7.85;;;0.40;99.90;;;;;;4945393;28;20032;-61
2024/01/28 09:23:07;;;;;;;14.95;7.93;;;0.50;99.90;;;;;;4951910;28;20031;-63
2024/01/28 09:25:33;;;;;;;10.43;6.70;;;0.90;99.90;;;;;;4951842;28;20423;-62
2024/01/28 09:27:59;;;;;;;12.27;6.13;;;1.70;99.90;;;;;;4947097;28;20035;-61
2024/01/28 09:30:25;;;;;;;7.30;4.95;;;2.90;99.90;;;;;;4943149;28;20594;-61
2024/01/28 09:32:51;;;;;;;10.68;5.32;;;4.50;99.90;;;;;;4940569;28;20071;-62
2024/01/28 09:35:16;;;;;;;7.15;3.95;;;6.10;99.90;;;;;;4946656;28;20038;-62
2024/01/28 09:37:42;;;;;;;8.30;4.38;;;7.40;99.90;;;;;;4952781;28;20023;-63
2024/01/28 09:40:11;;;;;;;16.95;4.90;;;8.60;99.90;;;;;;4941975;28;20035;-63
2024/01/28 09:42:46;;;;;;;8.35;5.30;;;9.70;99.90;;;;;;4954665;28;20035;-64
2024/01/28 09:45:13;;;;;;;7.68;4.38;;;10.60;99.90;;;;;;4943117;29;20399;-63
2024/01/28 09:47:40;;;;;;;7.50;4.82;;;11.40;99.90;;;;;;4950315;28;20090;-63
2024/01/28 09:50:08;;;;;;;8.10;4.72;;;11.80;99.90;;;;;;4948707;28;20082;-64
2024/01/28 09:52:34;;;;;;;8.85;4.20;;;12.10;96.20;;;;;;4950485;28;20467;-63
2024/01/28 09:54:59;;;;;;;7.60;4.32;;;12.10;93.30;;;;;;4948378;28;20115;-64
2024/01/28 09:57:25;;;;;;;6.32;3.97;;;12.20;95.00;;;;;;4950044;28;20444;-63
2024/01/28 09:59:51;;;;;;;6.72;3.80;;;11.70;90.80;;;;;;4951799;28;20062;-64
2024/01/28 10:02:17;;;;;;;6.85;3.10;;;11.80;94.00;;;;;;4951160;28;20035;-63
2024/01/28 10:04:45;;;;;;;4.18;2.58;;;11.50;91.80;;;;;;4952430;28;20542;-63
2024/01/28 10:07:11;;;;;;;6.10;2.97;;;10.90;92.20;;;;;;4951155;28;20043;-64
2024/01/28 10:09:37;;;;;;;7.72;3.38;;;10.70;94.10;;;;;;4950158;28;20376;-63
2024/01/28 10:12:04;;;;;;;8.18;3.15;;;10.20;94.00;;;;;;4949384;28;20039;-63
2024/01/28 10:14:30;;;;;;;5.57;3.13;;;9.80;98.50;;;;;;4946272;28;20059;-63
2024/01/28 10:16:58;;;;;;;5.30;3.40;;;9.80;99.90;;;;;;4946656;28;20062;-64
2024/01/28 10:19:24;;;;;;;7.10;2.88;;;9.40;99.90;;;;;;4949034;28;20539;-65
2024/01/28 10:21:50;;;;;;;7.60;2.97;;;9.00;99.90;;;;;;4947641;28;20110;-62
2024/01/28 10:24:17;;;;;;;4.30;2.90;;;8.20;99.90;;;;;;4945695;29;20032;-62
2024/01/28 10:26:42;;;;;;;5.60;2.45;;;7.80;99.90;;;;;;4951716;28;20034;-64
2024/01/28 10:29:09;;;;;;;8.98;3.03;;;7.70;99.90;;;;;;4953691;28;20031;-64
2024/01/28 10:31:36;;;;;;;8.82;2.58;;;7.80;99.90;;;;;;4950871;28;20122;-63
2024/01/28 10:34:03;;;;;;;7.22;2.42;;;7.90;99.90;;;;;;4942875;29;20020;-64
2024/01/28 10:36:34;;;;;;;6.35;2.35;;;7.90;99.90;;;;;;4943620;28;20059;-63
2024/01/28 10:39:04;;;;;;;5.70;2.65;;;7.70;99.90;;;;;;4955708;28;20035;-62
2024/01/28 10:41:33;;;;;;;6.78;2.42;;;7.80;99.90;;;;;;4947972;28;20448;-63
2024/01/28 10:44:08;;;;;;;5.35;2.38;;;7.80;99.90;;;;;;4947995;28;20026;-64
2024/01/28 10:46:39;;;;;;;4.65;2.10;;;7.70;99.90;;;;;;4947455;28;20039;-63
2024/01/28 10:49:06;;;;;;;4.60;2.63;;;7.90;99.90;;;;;;4947374;28;20027;-65
2024/01/28 10:51:37;;;;;;;6.07;2.10;;;7.90;99.90;;;;;;4960446;28;20031;-63
2024/01/28 10:54:04;;;;;;;6.85;1.98;;;7.70;99.90;;;;;;4944249;28;20039;-63
2024/01/28 10:56:35;;;;;;;5.20;3.28;;;7.40;99.90;;;;;;4947858;28;20031;-64
2024/01/28 10:59:01;;;;;;;;;;;7.20;99.90;;;;;;4950185;28;20077;-64
2024/01/28 11:01:28;;;;;;;5.35;2.03;;;6.90;99.90;;;;;;4956402;28;19908;-62
2024/01/28 11:03:55;;;;;;;6.82;3.33;;;6.90;99.90;;;;;;4950825;28;20562;-66
2024/01/28 11:06:20;;;;;;;4.57;1.70;;;6.80;99.90;;;;;;4946213;28;20087;-63
2024/01/28 11:08:46;;;;;;;3.58;1.50;;;6.80;99.90;;;;;;4945483;28;20023;-63
2024/01/28 11:11:12;;;;;;;2.45;1.67;;;6.80;99.90;;;;;;4940145;28;20486;-65
2024/01/28 11:13:38;;;;;;;3.95;1.83;;;6.70;99.90;;;;;;4948710;28;20024;-62
2024/01/28 11:16:07;;;;;;;6.63;2.05;;;6.80;99.90;;;;;;4950459;28;20373;-61
2024/01/28 11:18:33;;;;;;;6.57;3.25;;;6.80;99.90;;;;;;4944585;28;20115;-64
2024/01/28 11:21:19;;;;;;;6.28;1.85;;;6.60;99.90;;;;;;4940372;28;20118;-63
2024/01/28 11:23:48;;;;;;;2.45;1.63;;;6.80;99.90;;;;;;4947342;28;20027;-62
2024/01/28 11:26:17;;;;;;;2.65;1.90;;;6.90;99.90;;;;;;4947806;28;20097;-63
2024/01/28 11:28:48;;;;;;;7.18;2.20;;;6.90;99.90;;;;;;4950568;28;20035;-63
2024/01/28 11:31:34;;;;;;;4.30;1.77;;;7.00;99.90;;;;;;4946379;28;20038;-62
2024/01/28 11:34:12;;;;;;;4.13;1.63;;;7.10;99.90;;;;;;4951400;28;20043;-62
2024/01/28 11:36:40;;;;;;;2.53;1.60;;;7.10;99.90;;;;;;4949007;28;20042;-63
2024/01/28 11:39:13;;;;;;;6.20;1.83;;;6.90;99.90;;;;;;4948256;28;20031;-63
2024/01/28 11:41:41;;;;;;;8.73;2.10;;;6.90;99.90;;;;;;4947682;28;20427;-62
2024/01/28 11:44:08;;;;;;;4.70;1.95;;;6.90;99.90;;;;;;4949742;28;20024;-63
2024/01/28 11:46:38;;;;;;;2.67;1.40;;;6.90;99.90;;;;;;4947259;28;20057;-63
2024/01/28 11:49:08;;;;;;;5.03;2.45;;;6.90;99.90;;;;;;4945197;28;20086;-63
2024/01/28 11:51:34;;;;;;;5.17;3.27;;;6.90;99.90;;;;;;4949560;28;20035;-63
2024/01/28 11:54:02;;;;;;;6.13;1.42;;;6.90;99.90;;;;;;4946630;28;20053;-62
2024/01/28 11:56:28;;;;;;;2.67;1.55;;;7.00;99.90;;;;;;4948152;28;20065;-62
2024/01/28 11:58:55;;;;;;;4.55;1.50;;;7.10;99.90;;;;;;4946260;28;20121;-62
2024/01/28 12:01:21;;;;;;;3.38;1.40;;;7.10;99.90;;;;;;4944654;28;20698;-62
2024/01/28 12:03:47;;;;;;;2.30;1.60;;;7.10;99.90;;;;;;4945691;28;20138;-62
2024/01/28 12:06:14;;;;;;;2.00;1.42;;;7.20;99.90;;;;;;4948056;28;20118;-62
2024/01/28 12:08:43;;;;;;;4.13;1.83;;;7.40;99.90;;;;;;4947772;28;20052;-62
2024/01/28 12:11:12;;;;;;;4.88;1.73;;;7.50;99.90;;;;;;4943596;28;20023;-62
2024/01/28 12:13:37;;;;;;;2.13;1.27;;;7.50;99.90;;;;;;4939447;29;20028;-61
2024/01/28 12:16:04;;;;;;;5.70;1.77;;;7.60;99.90;;;;;;4943021;28;20134;-63
2024/01/28 12:18:41;;;;;;;2.90;1.67;;;7.70;99.90;;;;;;4944453;28;20043;-63
2024/01/28 12:21:17;;;;;;;4.43;1.42;;;7.60;99.90;;;;;;4943790;28;20699;-63
2024/01/28 12:23:47;;;;;;;2.88;1.40;;;7.80;99.90;;;;;;4946059;28;20095;-62
2024/01/28 12:26:15;;;;;;;4.47;1.48;;;7.80;99.90;;;;;;4944614;28;20028;-61
2024/01/28 12:28:42;;;;;;;2.72;1.40;;;7.80;99.90;;;;;;4947633;28;20019;-62
2024/01/28 12:31:09;;;;;;;5.18;2.00;;;7.90;99.90;;;;;;4951203;28;20514;-62